Wan Hai 273 — 9V7586 — position and weather

sailwx.info

Track history (hours):
 
Tides and Currents Weather Stations Pressure Air Temp Water Temp Dewpoint Dewpoint Depression Visibility Wind Speed Wind Dir Waves Ship Positions

Wan Hai 273

Last reported at 2015-Jul-04 16:32 UTC. Time now 2015-Jul-06 02:49 UTC.
Position N 15°50' E 108°54'.

Length 172 m; draft 8.7 m.

Type: Cargo ship. MMSI: 566406000.

Date/timePositionNaut miles runAvg speedWind from/ knotsBaromVisibWave heightAir tempDewpointWater temp
2015-Jul-04 16:32N 15°50' E 108°54'2119.9
2015-Jul-04 15:28N 16°03' E 108°37'1919.3
2015-Jul-04 14:28N 16°14' E 108°20'1010.6
2015-Jul-04 13:33N 16°07' E 108°13'0 0.1
2015-Jul-04 12:28N 16°07' E 108°13'0 0.0
2015-Jul-04 11:34N 16°07' E 108°13'0 0.0
2015-Jul-04 10:22N 16°07' E 108°13'0 0.0
2015-Jul-04 09:33N 16°07' E 108°13'0 0.0
2015-Jul-04 08:34N 16°07' E 108°13'0 0.0
2015-Jul-04 07:33N 16°07' E 108°13'0 0.1
2015-Jul-04 06:33N 16°07' E 108°13'4 4.1
2015-Jul-04 05:33N 16°11' E 108°13'1413.8
2015-Jul-04 04:33N 16°21' E 108°23'48117.5
2015-Jul-03 01:04N 22°12' E 114°10'712.5
2015-Jul-03 00:33N 22°18' E 114°06'1211.5
2015-Jul-02 23:30N 22°23' E 113°54'5 5.2
2015-Jul-02 22:33N 22°28' E 113°54'0 0.0
2015-Jul-02 21:33N 22°28' E 113°54'0 0.0
2015-Jul-02 20:33N 22°28' E 113°54'0 0.0
2015-Jul-02 19:33N 22°28' E 113°54'0 0.0
2015-Jul-02 18:33N 22°28' E 113°54'0 0.0
2015-Jul-02 17:33N 22°28' E 113°54'0 0.0
2015-Jul-02 16:33N 22°28' E 113°54'0 0.0
2015-Jul-02 15:33N 22°28' E 113°54'0 0.0
2015-Jul-02 14:33N 22°28' E 113°54'0 0.0
2015-Jul-02 13:33N 22°28' E 113°54'0 0.0
2015-Jul-02 12:33N 22°28' E 113°54'0 0.0
2015-Jul-02 11:33N 22°28' E 113°54'0 0.0
2015-Jul-02 10:33N 22°28' E 113°54'0 0.0
2015-Jul-02 09:33N 22°28' E 113°54'0 0.0
2015-Jul-02 08:33N 22°28' E 113°54'13 6.1
2015-Jul-02 06:29N 22°20' E 114°04'0 0.0
2015-Jul-02 05:29N 22°20' E 114°04'0 0.1
2015-Jul-02 04:32N 22°20' E 114°04'0 0.1
2015-Jul-02 03:26N 22°20' E 114°04'0 0.1
2015-Jul-02 02:32N 22°20' E 114°04'0 0.0
2015-Jul-02 01:32N 22°20' E 114°04'3 3.2
2015-Jul-02 00:34N 22°20' E 114°08'0 0.0
2015-Jul-01 23:26N 22°20' E 114°08'0 0.0
2015-Jul-01 22:29N 22°20' E 114°08'0 0.0
2015-Jul-01 21:29N 22°20' E 114°08'0 0.0
2015-Jul-01 20:32N 22°20' E 114°08'0 0.0
2015-Jul-01 19:32N 22°20' E 114°08'0 0.0
2015-Jul-01 18:29N 22°20' E 114°08'0 0.0
2015-Jul-01 17:29N 22°20' E 114°08'0 0.0
2015-Jul-01 16:32N 22°20' E 114°08'0 0.0
2015-Jul-01 15:32N 22°20' E 114°08'0 0.0
2015-Jul-01 14:23N 22°20' E 114°08'0 0.0
2015-Jul-01 13:29N 22°20' E 114°08'0 0.0
2015-Jul-01 12:29N 22°20' E 114°08'0 0.0
2015-Jul-01 11:32N 22°20' E 114°08'0 0.0
2015-Jul-01 10:32N 22°20' E 114°08'0 0.0
2015-Jul-01 09:32N 22°20' E 114°08'0 0.0
2015-Jul-01 08:32N 22°20' E 114°08'0 0.0
2015-Jul-01 07:33N 22°20' E 114°08'3 2.5
2015-Jul-01 06:33N 22°18' E 114°06'11 9.3
2015-Jul-01 05:22N 22°10' E 114°13'1012.9
2015-Jul-01 04:33N 22°09' E 114°24'146 7.6
2015-Jun-30 09:16N 22°50' E 116°55'9816.5
2015-Jun-30 03:20N 23°44' E 118°25'3116.0
2015-Jun-30 01:24N 24°06' E 118°48'1316.0
2015-Jun-30 00:34N 24°16' E 118°58'1815.1
2015-Jun-29 23:20N 24°30' E 119°11'3214.5
2015-Jun-29 21:08N 24°52' E 119°36'914.4
2015-Jun-29 20:30N 24°59' E 119°43'1514.8
2015-Jun-29 19:30N 25°10' E 119°54'32516.0
2015-Jun-28 23:13N 29°51' E 122°57'14616.2
2015-Jun-28 14:12N 32°17' E 123°09'254 6.6
2015-Jun-26 23:31N 35°58' E 120°38'  
Track history (hours):
 
Tides and Currents Weather Stations Pressure Air Temp Water Temp Dewpoint Dewpoint Depression Visibility Wind Speed Wind Dir Waves Ship Positions

Wan Hai 273

Last reported at 2015-Jul-04 16:32 UTC. Time now 2015-Jul-06 02:49 UTC.
Position N 15°50' E 108°54'.

Length 172 m; draft 8.7 m.

Type: Cargo ship. MMSI: 566406000.

Date/timePositionNaut miles runAvg speedWind from/ knotsBaromVisibWave heightAir tempDewpointWater temp
2015-Jul-04 16:32N 15°50' E 108°54'2119.9
2015-Jul-04 15:28N 16°03' E 108°37'1919.3
2015-Jul-04 14:28N 16°14' E 108°20'1010.6
2015-Jul-04 13:33N 16°07' E 108°13'0 0.1
2015-Jul-04 12:28N 16°07' E 108°13'0 0.0
2015-Jul-04 11:34N 16°07' E 108°13'0 0.0
2015-Jul-04 10:22N 16°07' E 108°13'0 0.0
2015-Jul-04 09:33N 16°07' E 108°13'0 0.0
2015-Jul-04 08:34N 16°07' E 108°13'0 0.0
2015-Jul-04 07:33N 16°07' E 108°13'0 0.1
2015-Jul-04 06:33N 16°07' E 108°13'4 4.1
2015-Jul-04 05:33N 16°11' E 108°13'1413.8
2015-Jul-04 04:33N 16°21' E 108°23'48117.5
2015-Jul-03 01:04N 22°12' E 114°10'712.5
2015-Jul-03 00:33N 22°18' E 114°06'1211.5
2015-Jul-02 23:30N 22°23' E 113°54'5 5.2
2015-Jul-02 22:33N 22°28' E 113°54'0 0.0
2015-Jul-02 21:33N 22°28' E 113°54'0 0.0
2015-Jul-02 20:33N 22°28' E 113°54'0 0.0
2015-Jul-02 19:33N 22°28' E 113°54'0 0.0
2015-Jul-02 18:33N 22°28' E 113°54'0 0.0
2015-Jul-02 17:33N 22°28' E 113°54'0 0.0
2015-Jul-02 16:33N 22°28' E 113°54'0 0.0
2015-Jul-02 15:33N 22°28' E 113°54'0 0.0
2015-Jul-02 14:33N 22°28' E 113°54'0 0.0
2015-Jul-02 13:33N 22°28' E 113°54'0 0.0
2015-Jul-02 12:33N 22°28' E 113°54'0 0.0
2015-Jul-02 11:33N 22°28' E 113°54'0 0.0
2015-Jul-02 10:33N 22°28' E 113°54'0 0.0
2015-Jul-02 09:33N 22°28' E 113°54'0 0.0
2015-Jul-02 08:33N 22°28' E 113°54'13 6.1
2015-Jul-02 06:29N 22°20' E 114°04'0 0.0
2015-Jul-02 05:29N 22°20' E 114°04'0 0.1
2015-Jul-02 04:32N 22°20' E 114°04'0 0.1
2015-Jul-02 03:26N 22°20' E 114°04'0 0.1
2015-Jul-02 02:32N 22°20' E 114°04'0 0.0
2015-Jul-02 01:32N 22°20' E 114°04'3 3.2
2015-Jul-02 00:34N 22°20' E 114°08'0 0.0
2015-Jul-01 23:26N 22°20' E 114°08'0 0.0
2015-Jul-01 22:29N 22°20' E 114°08'0 0.0
2015-Jul-01 21:29N 22°20' E 114°08'0 0.0
2015-Jul-01 20:32N 22°20' E 114°08'0 0.0
2015-Jul-01 19:32N 22°20' E 114°08'0 0.0
2015-Jul-01 18:29N 22°20' E 114°08'0 0.0
2015-Jul-01 17:29N 22°20' E 114°08'0 0.0
2015-Jul-01 16:32N 22°20' E 114°08'0 0.0
2015-Jul-01 15:32N 22°20' E 114°08'0 0.0
2015-Jul-01 14:23N 22°20' E 114°08'0 0.0
2015-Jul-01 13:29N 22°20' E 114°08'0 0.0
2015-Jul-01 12:29N 22°20' E 114°08'0 0.0
2015-Jul-01 11:32N 22°20' E 114°08'0 0.0
2015-Jul-01 10:32N 22°20' E 114°08'0 0.0
2015-Jul-01 09:32N 22°20' E 114°08'0 0.0
2015-Jul-01 08:32N 22°20' E 114°08'0 0.0
2015-Jul-01 07:33N 22°20' E 114°08'3 2.5
2015-Jul-01 06:33N 22°18' E 114°06'11 9.3
2015-Jul-01 05:22N 22°10' E 114°13'1012.9
2015-Jul-01 04:33N 22°09' E 114°24'146 7.6
2015-Jun-30 09:16N 22°50' E 116°55'9816.5
2015-Jun-30 03:20N 23°44' E 118°25'3116.0
2015-Jun-30 01:24N 24°06' E 118°48'1316.0
2015-Jun-30 00:34N 24°16' E 118°58'1815.1
2015-Jun-29 23:20N 24°30' E 119°11'3214.5
2015-Jun-29 21:08N 24°52' E 119°36'914.4
2015-Jun-29 20:30N 24°59' E 119°43'1514.8
2015-Jun-29 19:30N 25°10' E 119°54'32516.0
2015-Jun-28 23:13N 29°51' E 122°57'14616.2
2015-Jun-28 14:12N 32°17' E 123°09'254 6.6
2015-Jun-26 23:31N 35°58' E 120°38'  

Dump ship's entire track history